Time;durP1;ratioP1;P1;durP2;ratioP2;P2;SDS_P1;SDS_P2;PMS_P1;PMS_P2;Temp;Humidity;BMP_temperature;BMP_pressure;BME280_temperature;BME280_humidity;BME280_pressure;Samples;Min_cycle;Max_cycle;Signal;HPM_P1;HPM_P2
2023/12/21 00:02:07;;;;;;;23.80;6.90;;;8.40;99.90;;;;;;5009736;28;20387;-73
2023/12/21 00:04:33;;;;;;;27.50;6.47;;;8.40;99.90;;;;;;5011425;28;20126;-74
2023/12/21 00:07:00;;;;;;;21.70;9.77;;;8.30;99.90;;;;;;4994050;28;20109;-73
2023/12/21 00:09:26;;;;;;;29.57;7.33;;;8.40;99.90;;;;;;5010028;28;20362;-73
2023/12/21 00:11:52;;;;;;;21.40;7.03;;;8.40;99.90;;;;;;5008595;28;20312;-73
2023/12/21 00:14:17;;;;;;;22.97;8.23;;;8.40;99.90;;;;;;5011223;28;20530;-73
2023/12/21 00:16:43;;;;;;;21.97;6.63;;;8.40;99.90;;;;;;5009970;28;20052;-73
2023/12/21 00:19:09;;;;;;;23.97;13.70;;;8.40;99.90;;;;;;5010322;28;20038;-73
2023/12/21 00:21:34;;;;;;;21.30;4.53;;;8.40;99.90;;;;;;4993135;28;20062;-73
2023/12/21 00:24:00;;;;;;;21.67;5.13;;;8.40;99.90;;;;;;5010482;28;20073;-73
2023/12/21 00:26:26;;;;;;;18.30;5.87;;;8.40;99.90;;;;;;5006451;28;20042;-74
2023/12/21 00:28:51;;;;;;;20.67;7.37;;;8.30;99.90;;;;;;5006843;28;20053;-73
2023/12/21 00:31:17;;;;;;;26.53;6.17;;;8.40;99.90;;;;;;4994298;28;20054;-73
2023/12/21 00:33:43;;;;;;;17.43;5.77;;;8.40;99.90;;;;;;5011030;28;20049;-74
2023/12/21 00:36:15;;;;;;;22.43;12.20;;;8.40;99.90;;;;;;5010039;28;20058;-73
2023/12/21 00:38:41;;;;;;;17.33;6.37;;;8.40;99.90;;;;;;5007738;28;20078;-73
2023/12/21 00:41:06;;;;;;;19.73;7.67;;;8.40;99.90;;;;;;5008022;28;20351;-74
2023/12/21 00:43:32;;;;;;;51.53;46.60;;;8.40;99.90;;;;;;4991412;28;20041;-74
2023/12/21 00:45:58;;;;;;;17.40;6.27;;;8.40;99.90;;;;;;4996479;28;20045;-74
2023/12/21 00:48:23;;;;;;;27.37;5.83;;;8.40;99.90;;;;;;5008290;28;20525;-74
2023/12/21 00:50:49;;;;;;;26.23;13.23;;;8.40;99.90;;;;;;4992722;28;20080;-73
2023/12/21 00:53:15;;;;;;;18.97;6.13;;;8.50;99.90;;;;;;5007020;28;20046;-73
2023/12/21 00:55:41;;;;;;;24.83;15.33;;;8.40;99.90;;;;;;5005030;28;20039;-73
2023/12/21 00:58:06;;;;;;;18.63;12.07;;;8.40;99.90;;;;;;5009919;28;20895;-73
2023/12/21 01:00:32;;;;;;;22.10;7.40;;;8.40;99.90;;;;;;4990825;28;20089;-74
2023/12/21 01:02:58;;;;;;;18.10;7.40;;;8.40;99.90;;;;;;5009271;28;20108;-74
2023/12/21 01:05:24;;;;;;;20.20;7.73;;;8.40;99.90;;;;;;5013080;28;20081;-74
2023/12/21 01:07:49;;;;;;;26.07;14.13;;;8.50;99.90;;;;;;5009674;28;20343;-74
2023/12/21 01:10:15;;;;;;;23.90;14.20;;;8.40;99.90;;;;;;5009307;28;20042;-74
2023/12/21 01:12:41;;;;;;;22.03;5.77;;;8.40;99.90;;;;;;5008339;28;20047;-73
2023/12/21 01:15:07;;;;;;;29.73;7.40;;;8.40;99.90;;;;;;5010225;28;20038;-73
2023/12/21 01:17:34;;;;;;;26.50;9.53;;;8.40;99.90;;;;;;4992749;28;20240;-73
2023/12/21 01:20:00;;;;;;;22.20;9.37;;;8.40;99.90;;;;;;5008525;28;20040;-73
2023/12/21 01:22:25;;;;;;;22.07;8.37;;;8.40;99.90;;;;;;5008510;28;20820;-73
2023/12/21 01:24:51;;;;;;;24.77;10.33;;;8.40;99.90;;;;;;5010018;28;20045;-73
2023/12/21 01:27:17;;;;;;;22.17;9.13;;;8.40;99.90;;;;;;5009177;28;20042;-74
2023/12/21 01:29:43;;;;;;;21.27;7.13;;;8.40;99.90;;;;;;5009927;28;20038;-73
2023/12/21 01:32:09;;;;;;;28.10;13.17;;;8.40;99.90;;;;;;4987103;28;20049;-73
2023/12/21 01:34:34;;;;;;;18.77;6.67;;;8.40;99.90;;;;;;5010383;28;20289;-72
2023/12/21 01:37:00;;;;;;;24.47;9.77;;;8.40;99.90;;;;;;5009819;28;20140;-73
2023/12/21 01:39:26;;;;;;;24.97;6.90;;;8.40;99.90;;;;;;5008671;28;20061;-73
2023/12/21 01:41:52;;;;;;;17.73;7.20;;;8.40;99.90;;;;;;5010171;28;20124;-74
2023/12/21 01:44:18;;;;;;;25.63;12.03;;;8.40;99.90;;;;;;5010517;28;20825;-73
2023/12/21 01:46:44;;;;;;;22.67;8.10;;;8.40;99.90;;;;;;4993493;28;20177;-74
2023/12/21 01:49:10;;;;;;;20.37;8.30;;;8.40;99.90;;;;;;4992712;28;20289;-74
2023/12/21 01:51:36;;;;;;;22.57;15.30;;;8.40;99.90;;;;;;5010228;28;20281;-73
2023/12/21 01:54:03;;;;;;;20.83;9.03;;;8.40;99.90;;;;;;4993186;28;20383;-74
2023/12/21 01:56:32;;;;;;;20.60;7.43;;;8.40;99.90;;;;;;4993193;28;20329;-74
2023/12/21 01:58:59;;;;;;;20.63;6.40;;;8.40;99.90;;;;;;5009072;28;20805;-74
2023/12/21 02:01:25;;;;;;;24.57;10.07;;;8.40;99.90;;;;;;5009987;28;20777;-73
2023/12/21 02:03:53;;;;;;;28.17;21.53;;;8.40;99.90;;;;;;5009283;28;20288;-72
2023/12/21 02:06:18;;;;;;;18.03;7.60;;;8.40;99.90;;;;;;4993385;28;20316;-72
2023/12/21 02:08:44;;;;;;;21.20;8.07;;;8.40;99.90;;;;;;5007913;28;20324;-72
2023/12/21 02:11:10;;;;;;;20.70;6.90;;;8.40;99.90;;;;;;5012593;28;20048;-73
2023/12/21 02:13:36;;;;;;;22.97;12.37;;;8.40;99.90;;;;;;5013541;28;20133;-73
2023/12/21 02:16:17;;;;;;;31.00;7.57;;;8.50;99.90;;;;;;5013109;28;20292;-73
2023/12/21 02:18:43;;;;;;;45.30;41.10;;;8.40;99.90;;;;;;5012261;28;20048;-74
2023/12/21 02:21:11;;;;;;;27.47;8.90;;;8.50;99.90;;;;;;4996224;28;20288;-73
2023/12/21 02:23:39;;;;;;;32.93;26.30;;;8.50;99.90;;;;;;4997213;28;20293;-73
2023/12/21 02:26:05;;;;;;;20.20;8.30;;;8.50;99.90;;;;;;4995935;28;20802;-73
2023/12/21 02:28:31;;;;;;;29.60;9.93;;;8.50;99.90;;;;;;5013024;28;20285;-74
2023/12/21 02:30:57;;;;;;;22.20;11.40;;;8.50;99.90;;;;;;5011908;28;20050;-73
2023/12/21 02:33:23;;;;;;;22.80;6.43;;;8.50;99.90;;;;;;5009366;28;20080;-73
2023/12/21 02:35:49;;;;;;;24.33;7.40;;;8.50;99.90;;;;;;4983055;28;20054;-74
2023/12/21 02:38:14;;;;;;;32.90;18.87;;;8.50;99.90;;;;;;4994937;28;20046;-73
2023/12/21 02:40:40;;;;;;;31.40;25.47;;;8.50;99.90;;;;;;5012069;28;20297;-74
2023/12/21 02:43:06;;;;;;;26.83;10.30;;;8.50;99.90;;;;;;5011795;28;20061;-73
2023/12/21 02:45:31;;;;;;;26.83;12.37;;;8.50;99.90;;;;;;5012783;28;20510;-73
2023/12/21 02:47:57;;;;;;;34.47;26.37;;;8.50;99.90;;;;;;5011137;28;20395;-73
2023/12/21 02:50:23;;;;;;;30.47;18.97;;;8.50;99.90;;;;;;5010607;28;20045;-73
2023/12/21 02:52:48;;;;;;;29.07;9.40;;;8.50;99.90;;;;;;5014757;28;20117;-73
2023/12/21 02:55:14;;;;;;;24.13;11.80;;;8.50;99.90;;;;;;5001053;28;20506;-73
2023/12/21 02:57:40;;;;;;;30.37;18.43;;;8.50;99.90;;;;;;5013200;28;20452;-73
2023/12/21 03:00:07;;;;;;;38.00;34.57;;;8.40;99.90;;;;;;5011535;28;20312;-73
2023/12/21 03:02:33;;;;;;;24.67;10.57;;;8.40;99.90;;;;;;5012635;28;20188;-73
2023/12/21 03:04:59;;;;;;;27.17;10.53;;;8.40;99.90;;;;;;5012167;28;20760;-74
2023/12/21 03:07:24;;;;;;;22.87;10.47;;;8.40;99.90;;;;;;5012582;28;20068;-73
2023/12/21 03:09:50;;;;;;;23.90;12.03;;;8.40;99.90;;;;;;4996226;28;20041;-74
2023/12/21 03:12:16;;;;;;;37.40;28.57;;;8.40;99.90;;;;;;5011657;28;20038;-73
2023/12/21 03:14:41;;;;;;;36.47;32.40;;;8.40;99.90;;;;;;5012507;28;20092;-74
2023/12/21 03:17:08;;;;;;;29.00;15.60;;;8.40;99.90;;;;;;5011551;28;20452;-74
2023/12/21 03:19:34;;;;;;;28.37;7.77;;;8.40;99.90;;;;;;5012571;28;20104;-74
2023/12/21 03:21:59;;;;;;;26.33;11.83;;;8.40;99.90;;;;;;5011116;28;20288;-72
2023/12/21 03:24:25;;;;;;;36.93;33.07;;;8.40;99.90;;;;;;4995783;28;20073;-73
2023/12/21 03:26:51;;;;;;;28.83;22.33;;;8.50;99.90;;;;;;4987377;28;20046;-74
2023/12/21 03:29:17;;;;;;;44.53;39.93;;;8.50;99.90;;;;;;5012279;28;20033;-74
2023/12/21 03:31:42;;;;;;;27.97;11.33;;;8.50;99.90;;;;;;5011410;28;20295;-73
2023/12/21 03:34:08;;;;;;;29.00;15.70;;;8.50;99.90;;;;;;5027035;28;20056;-72
2023/12/21 03:36:34;;;;;;;19.57;6.43;;;8.50;99.90;;;;;;5007722;28;20446;-72
2023/12/21 03:38:59;;;;;;;30.47;17.77;;;8.50;99.90;;;;;;5012176;28;20112;-73
2023/12/21 03:41:25;;;;;;;24.43;9.97;;;8.50;99.90;;;;;;5012176;28;20042;-73
2023/12/21 03:43:51;;;;;;;26.90;23.40;;;8.50;99.90;;;;;;5010648;28;20130;-74
2023/12/21 03:46:17;;;;;;;92.63;85.30;;;8.50;99.90;;;;;;5010350;28;20038;-73
2023/12/21 03:48:43;;;;;;;20.70;8.60;;;8.50;99.90;;;;;;4994568;28;20490;-74
2023/12/21 03:51:08;;;;;;;33.77;30.23;;;8.50;99.90;;;;;;5015127;28;20065;-75
2023/12/21 03:53:34;;;;;;;20.10;9.60;;;8.50;99.90;;;;;;5008560;28;20073;-74
2023/12/21 03:56:00;;;;;;;69.30;63.13;;;8.60;99.90;;;;;;5011910;28;20044;-74
2023/12/21 03:58:25;;;;;;;24.93;8.20;;;8.60;99.90;;;;;;4985807;28;20133;-74
2023/12/21 04:00:51;;;;;;;36.23;30.83;;;8.60;99.90;;;;;;4995303;28;20044;-75
2023/12/21 04:03:17;;;;;;;85.53;77.20;;;8.50;99.90;;;;;;4994173;28;20120;-74
2023/12/21 04:05:43;;;;;;;41.60;37.97;;;8.50;99.90;;;;;;4994319;28;20033;-74
2023/12/21 04:08:08;;;;;;;18.70;7.50;;;8.50;99.90;;;;;;4994135;28;20052;-74
2023/12/21 04:10:34;;;;;;;23.57;11.60;;;8.50;99.90;;;;;;5012334;28;20338;-74
2023/12/21 04:13:00;;;;;;;44.77;40.37;;;8.50;99.90;;;;;;4995595;28;20049;-75
2023/12/21 04:15:26;;;;;;;26.47;8.73;;;8.50;99.90;;;;;;4994048;28;20653;-74
2023/12/21 04:17:52;;;;;;;27.73;16.03;;;8.50;99.90;;;;;;5010085;28;20045;-75
2023/12/21 04:20:17;;;;;;;25.63;9.90;;;8.50;99.90;;;;;;5010080;28;20202;-75
2023/12/21 04:22:43;;;;;;;35.33;25.67;;;8.50;99.90;;;;;;5010003;28;20172;-74
2023/12/21 04:25:09;;;;;;;24.67;9.37;;;8.50;99.90;;;;;;5010358;28;20094;-74
2023/12/21 04:27:34;;;;;;;26.47;7.10;;;8.50;99.90;;;;;;5008584;28;20581;-74
2023/12/21 04:30:01;;;;;;;28.33;24.30;;;8.50;99.90;;;;;;5010275;28;20038;-75
2023/12/21 04:32:26;;;;;;;22.77;17.37;;;8.50;99.90;;;;;;5010265;28;20046;-75
2023/12/21 04:34:52;;;;;;;18.90;6.90;;;8.50;99.90;;;;;;5010416;28;20303;-75
2023/12/21 04:37:18;;;;;;;22.07;11.43;;;8.50;99.90;;;;;;5009818;28;20068;-75
2023/12/21 04:39:43;;;;;;;24.60;9.43;;;8.50;99.90;;;;;;5009952;28;20135;-74
2023/12/21 04:42:09;;;;;;;50.33;46.10;;;8.50;99.90;;;;;;5007378;28;20049;-75
2023/12/21 04:44:35;;;;;;;30.30;20.73;;;8.60;99.90;;;;;;5010371;28;20046;-75
2023/12/21 04:47:02;;;;;;;49.50;34.73;;;8.60;99.90;;;;;;5010081;28;20671;-74
2023/12/21 04:49:27;;;;;;;48.30;43.87;;;8.60;99.90;;;;;;5009993;28;20148;-74
2023/12/21 04:51:53;;;;;;;42.60;38.37;;;8.60;99.90;;;;;;4985369;28;20340;-74
2023/12/21 04:54:19;;;;;;;25.30;17.37;;;8.70;99.90;;;;;;5011370;28;20573;-74
2023/12/21 04:56:44;;;;;;;28.47;7.50;;;8.70;99.90;;;;;;4992917;28;20052;-75
2023/12/21 04:59:10;;;;;;;23.20;13.63;;;8.70;99.90;;;;;;5005381;28;20410;-75
2023/12/21 05:01:36;;;;;;;40.80;36.90;;;8.70;99.90;;;;;;4994298;28;20038;-75
2023/12/21 05:04:06;;;;;;;22.03;15.90;;;8.70;99.90;;;;;;4993571;28;20068;-75
2023/12/21 05:06:32;;;;;;;17.77;11.00;;;8.70;99.90;;;;;;4993070;28;20046;-75
2023/12/21 05:08:59;;;;;;;19.03;16.77;;;8.80;99.90;;;;;;5009569;28;20304;-75
2023/12/21 05:11:25;;;;;;;18.63;7.10;;;8.80;99.90;;;;;;4993815;28;20042;-74
2023/12/21 05:13:51;;;;;;;49.63;45.53;;;8.80;99.90;;;;;;5009017;28;20303;-73
2023/12/21 05:16:16;;;;;;;28.50;25.67;;;8.80;99.90;;;;;;5008705;28;20164;-73
2023/12/21 05:18:42;;;;;;;27.03;23.33;;;8.80;99.90;;;;;;4994390;28;20045;-73
2023/12/21 05:21:11;;;;;;;49.03;45.23;;;8.80;99.90;;;;;;5006820;28;20049;-74
2023/12/21 05:23:36;;;;;;;19.67;11.07;;;8.80;99.90;;;;;;5010191;28;20096;-73
2023/12/21 05:26:07;;;;;;;31.93;28.60;;;8.90;99.90;;;;;;5010108;28;20285;-73
2023/12/21 05:28:33;;;;;;;18.57;5.97;;;8.90;99.90;;;;;;5010535;28;20042;-73
2023/12/21 05:30:59;;;;;;;20.63;9.33;;;8.80;99.90;;;;;;4982628;28;20293;-74
2023/12/21 05:33:24;;;;;;;37.63;34.07;;;8.90;99.90;;;;;;5008744;28;20050;-73
2023/12/21 05:35:50;;;;;;;28.83;23.40;;;8.90;99.90;;;;;;5009250;28;20358;-73
2023/12/21 05:38:16;;;;;;;27.37;19.90;;;8.90;99.90;;;;;;5009202;28;20437;-73
2023/12/21 05:40:41;;;;;;;27.33;15.17;;;8.90;99.90;;;;;;4992918;28;20049;-73
2023/12/21 05:43:07;;;;;;;26.53;13.90;;;8.90;99.90;;;;;;5009161;28;20050;-74
2023/12/21 05:45:32;;;;;;;45.97;41.30;;;8.90;99.90;;;;;;5015494;28;20072;-74
2023/12/21 05:47:59;;;;;;;20.77;11.23;;;8.90;99.90;;;;;;4994174;28;20034;-74
2023/12/21 05:50:25;;;;;;;29.67;24.50;;;9.00;99.90;;;;;;5012699;28;20042;-74
2023/12/21 05:52:51;;;;;;;28.97;15.87;;;9.00;99.90;;;;;;5014507;28;20371;-74
2023/12/21 05:55:17;;;;;;;26.00;23.37;;;9.00;99.90;;;;;;5011631;28;20360;-75
2023/12/21 05:57:43;;;;;;;39.13;35.10;;;9.00;99.90;;;;;;5029932;28;20046;-74
2023/12/21 06:00:10;;;;;;;51.27;46.77;;;9.00;99.90;;;;;;5007116;28;20489;-74
2023/12/21 06:02:36;;;;;;;253.03;231.53;;;9.00;99.90;;;;;;5018369;28;20335;-74
2023/12/21 06:05:02;;;;;;;20.83;15.97;;;9.00;99.90;;;;;;4996608;28;20328;-74
2023/12/21 06:07:27;;;;;;;20.53;17.07;;;9.00;99.90;;;;;;5012672;28;20037;-74
2023/12/21 06:09:54;;;;;;;17.57;5.53;;;9.00;99.90;;;;;;5012799;28;20073;-73
2023/12/21 06:12:20;;;;;;;18.53;14.77;;;8.90;99.90;;;;;;5013335;28;20057;-74
2023/12/21 06:15:04;;;;;;;37.77;34.70;;;8.90;99.90;;;;;;5012634;28;20297;-74
2023/12/21 06:17:30;;;;;;;41.07;37.27;;;8.90;99.90;;;;;;5022032;28;20050;-74
2023/12/21 06:19:56;;;;;;;28.73;25.97;;;8.80;99.90;;;;;;5008055;28;20304;-74
2023/12/21 06:22:21;;;;;;;56.40;52.23;;;8.80;99.90;;;;;;4994524;28;20070;-75
2023/12/21 06:24:48;;;;;;;30.33;22.70;;;8.70;99.90;;;;;;4996621;28;20033;-75
2023/12/21 06:27:14;;;;;;;57.77;53.53;;;8.70;99.90;;;;;;5012036;28;20430;-75
2023/12/21 06:29:41;;;;;;;123.57;114.30;;;8.70;99.90;;;;;;4996735;28;20355;-74
2023/12/21 06:32:06;;;;;;;58.93;54.37;;;8.70;99.90;;;;;;5012887;28;20470;-74
2023/12/21 06:34:32;;;;;;;24.80;13.73;;;8.70;99.90;;;;;;5013445;28;20378;-75
2023/12/21 06:36:59;;;;;;;46.27;42.27;;;8.60;99.90;;;;;;5012412;28;20065;-75
2023/12/21 06:39:24;;;;;;;287.90;133.47;;;8.60;99.90;;;;;;4996616;28;20052;-76
2023/12/21 06:41:50;;;;;;;70.67;65.87;;;8.60;99.90;;;;;;5012444;28;20289;-75
2023/12/21 06:44:16;;;;;;;96.93;89.87;;;8.60;99.90;;;;;;5011289;28;20037;-75
2023/12/21 06:46:42;;;;;;;57.10;52.10;;;8.60;99.90;;;;;;4995985;28;20044;-75
2023/12/21 06:49:11;;;;;;;25.00;11.63;;;8.60;99.90;;;;;;4996693;28;20067;-74
2023/12/21 06:51:37;;;;;;;94.43;87.47;;;8.60;99.90;;;;;;5012896;28;20634;-74
2023/12/21 06:54:04;;;;;;;376.45;248.60;;;8.60;99.90;;;;;;4994201;28;20638;-75
2023/12/21 06:56:30;;;;;;;176.20;162.30;;;8.60;99.90;;;;;;4995480;28;20120;-74
2023/12/21 06:58:55;;;;;;;46.03;42.23;;;8.60;99.90;;;;;;4996529;28;20388;-74
2023/12/21 07:01:26;;;;;;;69.80;64.20;;;8.60;99.90;;;;;;5013391;28;20053;-76
2023/12/21 07:03:52;;;;;;;23.48;21.02;;;8.60;99.90;;;;;;5012460;28;20042;-74
2023/12/21 07:06:18;;;;;;;136.90;124.37;;;8.50;99.90;;;;;;4995878;28;20091;-74
2023/12/21 07:08:43;;;;;;;26.67;17.80;;;8.50;99.90;;;;;;4996178;28;20281;-74
2023/12/21 07:11:09;;;;;;;72.57;66.53;;;8.50;99.90;;;;;;5012495;28;20057;-74
2023/12/21 07:13:35;;;;;;;110.47;102.07;;;8.60;99.90;;;;;;5012227;28;20375;-74
2023/12/21 07:16:01;;;;;;;31.03;26.67;;;8.50;99.90;;;;;;5012810;28;20050;-74
2023/12/21 07:18:27;;;;;;;118.47;109.30;;;8.60;99.90;;;;;;4998226;28;20046;-74
2023/12/21 07:20:53;;;;;;;40.53;33.93;;;8.50;99.90;;;;;;4995477;28;20284;-74
2023/12/21 07:23:19;;;;;;;48.50;44.20;;;8.60;99.90;;;;;;5012195;28;20040;-74
2023/12/21 07:25:45;;;;;;;91.75;83.05;;;8.60;99.90;;;;;;5011881;28;20034;-74
2023/12/21 07:28:10;;;;;;;62.43;57.13;;;8.60;99.90;;;;;;5012060;28;20044;-74
2023/12/21 07:30:36;;;;;;;34.77;18.00;;;8.60;99.90;;;;;;5012079;28;20029;-74
2023/12/21 07:33:02;;;;;;;30.20;13.00;;;8.60;99.90;;;;;;4993060;28;20042;-74
2023/12/21 07:35:28;;;;;;;42.67;38.33;;;8.60;99.90;;;;;;5013919;28;20592;-74
2023/12/21 07:37:53;;;;;;;123.20;114.70;;;8.60;99.90;;;;;;5011504;28;20069;-76
2023/12/21 07:40:19;;;;;;;214.43;178.63;;;8.60;99.90;;;;;;5010023;28;20041;-74
2023/12/21 07:42:45;;;;;;;27.83;12.53;;;8.60;99.90;;;;;;5011466;28;20038;-74
2023/12/21 07:45:11;;;;;;;53.63;48.83;;;8.60;99.90;;;;;;5011203;28;20187;-74
2023/12/21 07:47:37;;;;;;;53.67;48.63;;;8.60;99.90;;;;;;4996242;28;20769;-74
2023/12/21 07:50:03;;;;;;;125.17;113.23;;;8.60;99.90;;;;;;5011020;28;20053;-73
2023/12/21 07:52:29;;;;;;;95.57;87.80;;;8.60;99.90;;;;;;5011452;28;20096;-74
2023/12/21 07:54:55;;;;;;;79.10;72.00;;;8.60;99.90;;;;;;5006390;28;20383;-73
2023/12/21 07:57:20;;;;;;;36.20;25.20;;;8.70;99.90;;;;;;5010215;28;20046;-73
2023/12/21 07:59:46;;;;;;;48.67;43.60;;;8.70;99.90;;;;;;5011281;28;20076;-73
2023/12/21 08:02:12;;;;;;;75.93;69.03;;;8.70;99.90;;;;;;5011182;28;20111;-73
2023/12/21 08:04:37;;;;;;;33.73;13.07;;;8.70;99.90;;;;;;5010282;28;20030;-73
2023/12/21 08:07:03;;;;;;;95.17;86.77;;;8.70;99.90;;;;;;4986212;28;20093;-74
2023/12/21 08:09:30;;;;;;;67.97;61.80;;;8.70;99.90;;;;;;5008416;28;20053;-73
2023/12/21 08:11:56;;;;;;;46.37;38.10;;;8.70;99.90;;;;;;5010770;28;20048;-73
2023/12/21 08:14:21;;;;;;;33.57;29.73;;;8.70;99.90;;;;;;4993972;28;20300;-73
2023/12/21 08:16:48;;;;;;;89.30;81.83;;;8.80;99.90;;;;;;4996206;28;20446;-74
2023/12/21 08:19:14;;;;;;;29.23;13.10;;;8.90;99.90;;;;;;5008181;28;20418;-73
2023/12/21 08:21:39;;;;;;;41.00;31.33;;;8.90;99.90;;;;;;4988650;28;20312;-73
2023/12/21 08:24:05;;;;;;;34.07;18.97;;;8.90;99.90;;;;;;4991971;28;20045;-74
2023/12/21 08:26:31;;;;;;;77.40;70.80;;;9.00;99.90;;;;;;4994018;28;20044;-74
2023/12/21 08:28:57;;;;;;;83.60;77.00;;;9.00;99.90;;;;;;4994283;28;20045;-74
2023/12/21 08:31:24;;;;;;;51.43;45.93;;;9.10;99.90;;;;;;5010113;28;20642;-74
2023/12/21 08:33:50;;;;;;;36.03;25.10;;;9.10;99.90;;;;;;4992481;28;20073;-74
2023/12/21 08:36:16;;;;;;;34.33;29.53;;;9.10;99.90;;;;;;5009745;28;20297;-73
2023/12/21 08:38:41;;;;;;;33.07;13.80;;;9.10;99.90;;;;;;5009384;28;20363;-73
2023/12/21 08:41:07;;;;;;;33.43;22.47;;;9.10;99.90;;;;;;5009563;28;20453;-74
2023/12/21 08:43:33;;;;;;;46.60;41.80;;;9.10;99.90;;;;;;5010033;28;20041;-74
2023/12/21 08:45:59;;;;;;;31.20;20.80;;;9.10;99.90;;;;;;5010110;28;20068;-74
2023/12/21 08:48:26;;;;;;;41.60;36.90;;;9.10;99.90;;;;;;4992097;28;20367;-74
2023/12/21 08:50:52;;;;;;;37.87;19.57;;;9.10;99.90;;;;;;4993158;28;20042;-74
2023/12/21 08:53:17;;;;;;;36.50;9.63;;;9.10;99.90;;;;;;4991850;28;20657;-74
2023/12/21 08:55:44;;;;;;;31.70;10.07;;;9.20;99.90;;;;;;5004704;28;20287;-74
2023/12/21 08:58:10;;;;;;;95.10;87.80;;;9.20;99.90;;;;;;4993096;28;20482;-74
2023/12/21 09:00:36;;;;;;;94.30;87.20;;;9.20;99.90;;;;;;5010498;28;20343;-74
2023/12/21 09:03:01;;;;;;;30.97;24.27;;;9.20;99.90;;;;;;5008400;28;20129;-74
2023/12/21 09:05:27;;;;;;;36.70;22.73;;;9.30;99.90;;;;;;5009575;28;20285;-73
2023/12/21 09:07:53;;;;;;;31.77;18.17;;;9.30;99.90;;;;;;5008746;28;20042;-74
2023/12/21 09:10:19;;;;;;;29.93;18.20;;;9.30;99.90;;;;;;4992026;28;20046;-74
2023/12/21 09:12:44;;;;;;;38.43;34.63;;;9.30;99.90;;;;;;5007100;28;20581;-74
2023/12/21 09:15:10;;;;;;;22.73;9.63;;;9.30;99.90;;;;;;5006228;28;20045;-74
2023/12/21 09:17:36;;;;;;;43.03;38.87;;;9.30;99.90;;;;;;4989455;28;20045;-73
2023/12/21 09:20:02;;;;;;;32.50;25.20;;;9.30;99.90;;;;;;4987580;28;20624;-74
2023/12/21 09:22:28;;;;;;;119.93;108.63;;;9.40;99.90;;;;;;5001361;28;20148;-74
2023/12/21 09:24:54;;;;;;;138.90;128.53;;;9.40;99.90;;;;;;5005634;28;20368;-74
2023/12/21 09:27:20;;;;;;;69.07;63.17;;;9.40;99.90;;;;;;5006988;28;20030;-74
2023/12/21 09:29:45;;;;;;;31.60;18.57;;;9.40;99.90;;;;;;5006273;28;20092;-73
2023/12/21 09:32:11;;;;;;;58.67;53.83;;;9.40;99.90;;;;;;5004991;28;20165;-73
2023/12/21 09:34:38;;;;;;;40.50;36.70;;;9.50;99.90;;;;;;4981814;28;20406;-72
2023/12/21 09:37:06;;;;;;;63.50;58.30;;;9.50;99.90;;;;;;5006184;28;20119;-74
2023/12/21 09:39:32;;;;;;;78.27;71.63;;;9.50;99.90;;;;;;5006741;28;20355;-73
2023/12/21 09:42:01;;;;;;;41.00;36.47;;;9.50;99.90;;;;;;4992260;28;20304;-73
2023/12/21 09:44:31;;;;;;;31.40;27.47;;;9.50;99.90;;;;;;5000048;28;20034;-74
2023/12/21 09:46:57;;;;;;;34.93;31.17;;;9.50;99.90;;;;;;5006297;28;20281;-73
2023/12/21 09:49:23;;;;;;;37.07;32.07;;;9.50;99.90;;;;;;5002719;28;20297;-74
2023/12/21 09:51:49;;;;;;;69.73;64.47;;;9.50;99.90;;;;;;4987565;28;20292;-73
2023/12/21 09:54:17;;;;;;;55.03;50.27;;;9.60;99.90;;;;;;5009258;28;20516;-73
2023/12/21 09:56:45;;;;;;;24.77;16.03;;;9.60;99.90;;;;;;4993664;28;20284;-74
2023/12/21 09:59:12;;;;;;;36.93;32.33;;;9.60;99.90;;;;;;5008437;28;20312;-73
2023/12/21 10:01:38;;;;;;;62.10;56.20;;;9.70;99.90;;;;;;4992001;28;20426;-73
2023/12/21 10:04:03;;;;;;;25.07;18.37;;;9.70;99.90;;;;;;5004373;28;20352;-73
2023/12/21 10:06:29;;;;;;;46.67;42.87;;;9.70;99.90;;;;;;5006625;28;20506;-74
2023/12/21 10:08:55;;;;;;;81.97;73.00;;;9.80;99.90;;;;;;5004730;28;20125;-74
2023/12/21 10:11:21;;;;;;;155.37;119.47;;;9.80;99.90;;;;;;4991256;28;20145;-74
2023/12/21 10:13:47;;;;;;;99.20;90.80;;;9.80;99.90;;;;;;4993558;28;20292;-74
2023/12/21 10:16:13;;;;;;;52.63;48.17;;;9.80;99.90;;;;;;5007442;28;20037;-74
2023/12/21 10:18:40;;;;;;;35.57;32.40;;;9.80;99.90;;;;;;5006322;28;20804;-74
2023/12/21 10:21:05;;;;;;;33.03;26.20;;;9.80;99.90;;;;;;5006844;28;20065;-72
2023/12/21 10:23:31;;;;;;;79.33;60.67;;;9.90;99.90;;;;;;4991937;28;20340;-72
2023/12/21 10:25:58;;;;;;;42.27;38.40;;;9.90;99.90;;;;;;5005485;28;20112;-72
2023/12/21 10:28:24;;;;;;;25.80;13.73;;;9.90;99.90;;;;;;5007469;28;20053;-73
2023/12/21 10:31:02;;;;;;;30.83;26.77;;;9.90;99.90;;;;;;5010189;28;20297;-73
2023/12/21 10:33:28;;;;;;;43.20;39.50;;;9.90;99.90;;;;;;5007726;28;20322;-74
2023/12/21 10:35:54;;;;;;;149.07;136.30;;;9.90;99.90;;;;;;4994764;28;20638;-73
2023/12/21 10:38:22;;;;;;;29.20;24.67;;;9.90;99.90;;;;;;4993948;28;20288;-73
2023/12/21 10:40:48;;;;;;;28.83;20.67;;;9.90;99.90;;;;;;5011686;28;20069;-74
2023/12/21 10:43:17;;;;;;;34.37;26.63;;;9.90;99.90;;;;;;4997476;28;20375;-74
2023/12/21 10:45:47;;;;;;;42.77;38.33;;;10.00;99.90;;;;;;5027302;28;20288;-74
2023/12/21 10:48:15;;;;;;;132.67;123.07;;;10.00;99.90;;;;;;5011699;28;20840;-74
2023/12/21 10:50:45;;;;;;;35.87;32.33;;;10.00;99.90;;;;;;5006342;28;20743;-74
2023/12/21 10:53:13;;;;;;;32.43;15.43;;;10.00;99.90;;;;;;4987949;28;20289;-74
2023/12/21 10:55:40;;;;;;;26.40;17.07;;;10.00;99.90;;;;;;5008851;28;20305;-74
2023/12/21 10:58:07;;;;;;;113.10;103.53;;;10.00;99.90;;;;;;5012079;28;20300;-73
2023/12/21 11:00:33;;;;;;;122.43;112.80;;;10.00;99.90;;;;;;4992075;28;20301;-73
2023/12/21 11:03:00;;;;;;;36.33;31.10;;;9.90;99.90;;;;;;5011331;28;20304;-73
2023/12/21 11:05:27;;;;;;;38.73;33.53;;;9.90;99.90;;;;;;5009098;28;20303;-73
2023/12/21 11:07:54;;;;;;;85.03;77.20;;;9.90;99.90;;;;;;5010365;28;20292;-74
2023/12/21 11:10:23;;;;;;;71.20;65.13;;;9.90;99.90;;;;;;4995792;28;20300;-74
2023/12/21 11:12:49;;;;;;;23.83;16.80;;;9.90;99.90;;;;;;5011369;28;20327;-74
2023/12/21 11:15:19;;;;;;;53.03;48.43;;;9.90;99.90;;;;;;5004251;28;20293;-72
2023/12/21 11:17:56;;;;;;;89.30;81.53;;;9.90;99.90;;;;;;5009951;28;20400;-73
2023/12/21 11:20:26;;;;;;;26.87;21.20;;;10.00;99.90;;;;;;4993799;28;20730;-72
2023/12/21 11:22:52;;;;;;;86.17;78.33;;;10.00;99.90;;;;;;5021346;28;20292;-73
2023/12/21 11:25:24;;;;;;;36.43;22.23;;;10.00;99.90;;;;;;5003996;28;20313;-73
2023/12/21 11:27:51;;;;;;;28.43;9.60;;;10.00;99.90;;;;;;4984195;28;20304;-72
2023/12/21 11:30:19;;;;;;;112.53;103.10;;;10.00;99.90;;;;;;4992028;28;20653;-72
2023/12/21 11:32:46;;;;;;;105.93;97.90;;;10.10;99.90;;;;;;5008767;28;20300;-73
2023/12/21 11:35:23;;;;;;;47.80;43.13;;;10.10;99.90;;;;;;5008104;28;20653;-74
2023/12/21 11:37:56;;;;;;;187.00;171.57;;;10.10;99.90;;;;;;4994915;28;20304;-74
2023/12/21 11:40:23;;;;;;;38.03;33.70;;;10.10;99.90;;;;;;5011557;28;20669;-73
2023/12/21 11:42:56;;;;;;;183.30;169.10;;;10.20;99.90;;;;;;4999572;28;20281;-72
2023/12/21 11:45:28;;;;;;;30.07;16.07;;;10.10;99.90;;;;;;4993179;28;20305;-72
2023/12/21 11:48:01;;;;;;;88.33;79.93;;;10.20;99.90;;;;;;5006947;28;20386;-73
2023/12/21 11:50:30;;;;;;;219.30;199.70;;;10.20;99.90;;;;;;4994781;28;20387;-72
2023/12/21 11:53:07;;;;;;;91.93;84.07;;;10.20;99.90;;;;;;5010567;28;20875;-72
2023/12/21 11:55:41;;;;;;;39.20;25.20;;;10.30;99.90;;;;;;4994161;28;20302;-74
2023/12/21 11:58:23;;;;;;;28.67;25.15;;;10.20;99.90;;;;;;5007455;28;20793;-73
2023/12/21 12:00:50;;;;;;;172.13;158.50;;;10.20;99.90;;;;;;5010944;28;20057;-74
2023/12/21 12:03:18;;;;;;;370.43;252.10;;;10.20;99.90;;;;;;4994567;28;20315;-74
2023/12/21 12:05:44;;;;;;;103.57;93.90;;;10.30;99.90;;;;;;5008773;28;20293;-74
2023/12/21 12:08:10;;;;;;;35.87;25.77;;;10.30;99.90;;;;;;4996311;28;20285;-73
2023/12/21 12:10:36;;;;;;;139.07;128.67;;;10.30;99.90;;;;;;5009273;28;20284;-74
2023/12/21 12:13:03;;;;;;;55.07;49.30;;;10.30;99.90;;;;;;5011671;28;20285;-72
2023/12/21 12:15:30;;;;;;;120.97;111.53;;;10.30;99.90;;;;;;4990509;28;20080;-73
2023/12/21 12:17:56;;;;;;;105.50;97.47;;;10.40;99.90;;;;;;5007246;28;20376;-73
2023/12/21 12:20:22;;;;;;;145.67;133.80;;;10.40;99.90;;;;;;4994535;28;20448;-73
2023/12/21 12:22:54;;;;;;;160.73;145.67;;;10.40;99.90;;;;;;5003755;28;20517;-74
2023/12/21 12:25:20;;;;;;;101.77;92.93;;;10.50;99.90;;;;;;5014509;28;20309;-73
2023/12/21 12:27:47;;;;;;;674.47;406.33;;;10.50;99.90;;;;;;5009902;28;20319;-74
2023/12/21 12:30:13;;;;;;;41.63;37.17;;;10.50;99.90;;;;;;5010904;28;20041;-74
2023/12/21 12:32:40;;;;;;;125.27;112.63;;;10.50;99.90;;;;;;5004774;28;20918;-75